createdAt,value
2022-07-29T00:00:16.197Z,7.20
2022-07-29T00:01:47.941Z,12.88
2022-07-29T00:03:19.787Z,7.22
2022-07-29T00:04:51.620Z,9.27
2022-07-29T00:06:23.445Z,10.32
2022-07-29T00:07:55.227Z,10.60
2022-07-29T00:09:26.967Z,8.80
2022-07-29T00:10:58.694Z,4.72
2022-07-29T00:12:30.461Z,8.98
2022-07-29T00:14:02.312Z,9.48
2022-07-29T00:15:35.435Z,8.63
2022-07-29T00:17:07.158Z,9.95
2022-07-29T00:18:40.333Z,6.88
2022-07-29T00:20:12.270Z,7.30
2022-07-29T00:21:44.224Z,7.10
2022-07-29T00:23:15.940Z,10.23
2022-07-29T00:24:48.690Z,9.93
2022-07-29T00:26:20.379Z,7.43
2022-07-29T00:27:52.067Z,6.72
2022-07-29T00:29:39.173Z,9.25
2022-07-29T00:31:12.349Z,8.55
2022-07-29T00:32:44.142Z,9.10
2022-07-29T00:34:42.192Z,5.57
2022-07-29T00:36:14.038Z,8.68
2022-07-29T00:37:45.822Z,8.23
2022-07-29T00:39:17.511Z,9.07
2022-07-29T00:40:49.373Z,8.98
2022-07-29T00:42:21.106Z,10.38
2022-07-29T00:43:52.805Z,8.80
2022-07-29T00:45:24.574Z,6.72
2022-07-29T00:46:57.761Z,7.72
2022-07-29T00:48:29.546Z,7.95
2022-07-29T00:50:01.521Z,7.03
2022-07-29T00:51:33.224Z,6.57
2022-07-29T00:53:08.155Z,7.50
2022-07-29T00:54:44.434Z,9.15
2022-07-29T00:56:16.708Z,7.47
2022-07-29T00:57:48.842Z,10.15
2022-07-29T00:59:20.791Z,8.25
2022-07-29T01:00:53.332Z,8.70
2022-07-29T01:02:26.613Z,9.98
2022-07-29T01:03:58.611Z,7.40
2022-07-29T01:05:48.246Z,8.75
2022-07-29T01:07:22.917Z,8.27
2022-07-29T01:08:55.022Z,8.60
2022-07-29T01:10:28.348Z,6.55
2022-07-29T01:12:01.079Z,7.50
2022-07-29T01:13:34.275Z,10.30
2022-07-29T01:15:08.825Z,7.95
2022-07-29T01:16:46.850Z,8.43
2022-07-29T01:18:25.105Z,8.75
2022-07-29T01:20:02.678Z,10.18
2022-07-29T01:21:51.161Z,9.73
2022-07-29T01:23:41.922Z,7.50
2022-07-29T01:25:33.470Z,8.48
2022-07-29T01:27:23.298Z,8.43
2022-07-29T01:29:04.058Z,8.35
2022-07-29T01:30:41.170Z,9.18
2022-07-29T01:32:28.193Z,6.22
2022-07-29T01:34:05.211Z,7.25
2022-07-29T01:35:40.965Z,9.82
2022-07-29T01:37:19.211Z,7.78
2022-07-29T01:38:58.072Z,9.18
2022-07-29T01:40:35.793Z,9.13
2022-07-29T01:42:13.711Z,12.38
2022-07-29T01:43:52.718Z,9.80
2022-07-29T01:45:33.010Z,9.68
2022-07-29T01:47:11.746Z,10.25
2022-07-29T01:48:48.225Z,11.98
2022-07-29T01:50:24.316Z,12.02
2022-07-29T01:51:59.790Z,9.93
2022-07-29T01:53:38.269Z,8.50
2022-07-29T01:55:14.969Z,11.05
2022-07-29T01:56:50.730Z,9.82
2022-07-29T01:58:24.002Z,11.90
2022-07-29T01:59:58.478Z,12.15
2022-07-29T02:01:33.746Z,10.60
2022-07-29T02:03:10.591Z,9.10
2022-07-29T02:04:45.612Z,9.02
2022-07-29T02:06:22.318Z,9.23
2022-07-29T02:07:56.737Z,7.97
2022-07-29T02:09:29.612Z,7.05
2022-07-29T02:11:02.424Z,11.63
2022-07-29T02:12:36.577Z,8.32
2022-07-29T02:14:10.898Z,7.93
2022-07-29T02:15:44.588Z,9.20
2022-07-29T02:17:23.379Z,8.73
2022-07-29T02:18:56.642Z,9.10
2022-07-29T02:20:29.761Z,6.95
2022-07-29T02:22:02.566Z,9.38
2022-07-29T02:23:50.918Z,7.53
2022-07-29T02:25:25.326Z,7.05
2022-07-29T02:27:10.598Z,9.32
2022-07-29T02:28:42.473Z,11.45
2022-07-29T02:30:14.475Z,8.25
2022-07-29T02:31:48.163Z,11.60
2022-07-29T02:33:24.289Z,10.57
2022-07-29T02:34:57.524Z,8.95
2022-07-29T02:36:30.821Z,13.75
2022-07-29T02:38:22.647Z,9.73
2022-07-29T02:39:56.171Z,11.35
2022-07-29T02:41:31.296Z,8.68
2022-07-29T02:43:05.261Z,7.60
2022-07-29T02:44:37.736Z,10.75
2022-07-29T02:46:29.043Z,10.13
2022-07-29T02:48:07.207Z,9.63
2022-07-29T02:49:46.799Z,10.35
2022-07-29T02:51:43.607Z,7.07
2022-07-29T02:53:19.765Z,8.13
2022-07-29T02:54:56.392Z,6.57
2022-07-29T02:56:35.760Z,9.65
2022-07-29T02:58:15.149Z,8.77
2022-07-29T02:59:50.799Z,9.52
2022-07-29T03:01:25.279Z,6.10
2022-07-29T03:03:00.358Z,8.75
2022-07-29T03:04:35.283Z,7.32
2022-07-29T03:06:09.543Z,9.43
2022-07-29T03:08:04.904Z,9.15
2022-07-29T03:09:37.560Z,9.73
2022-07-29T03:11:10.537Z,8.05
2022-07-29T03:12:43.647Z,11.13
2022-07-29T03:14:18.161Z,8.00
2022-07-29T03:15:50.790Z,6.82
2022-07-29T03:17:23.468Z,10.95
2022-07-29T03:18:56.130Z,8.75
2022-07-29T03:20:28.066Z,8.55
2022-07-29T03:22:01.678Z,10.45
2022-07-29T03:23:36.976Z,9.43
2022-07-29T03:25:09.731Z,8.20
2022-07-29T03:26:41.439Z,11.10
2022-07-29T03:28:13.182Z,10.70
2022-07-29T03:29:49.727Z,7.75
2022-07-29T03:31:22.036Z,7.22
2022-07-29T03:32:54.088Z,6.93
2022-07-29T03:34:28.333Z,9.63
2022-07-29T03:36:00.048Z,9.75
2022-07-29T03:37:34.386Z,9.25
2022-07-29T03:39:07.858Z,9.52
2022-07-29T03:40:43.994Z,9.95
2022-07-29T03:42:17.547Z,10.00
2022-07-29T03:43:52.476Z,9.77
2022-07-29T03:45:26.130Z,12.00
2022-07-29T03:47:02.904Z,9.75
2022-07-29T03:48:37.560Z,11.20
2022-07-29T03:50:12.903Z,8.80
2022-07-29T03:51:44.890Z,9.35
2022-07-29T03:53:18.491Z,8.88
2022-07-29T03:54:50.568Z,11.45
2022-07-29T03:56:24.305Z,9.30
2022-07-29T03:57:58.575Z,8.68
2022-07-29T03:59:33.626Z,10.95
2022-07-29T04:01:05.468Z,7.82
2022-07-29T04:02:38.866Z,9.82
2022-07-29T04:04:11.042Z,11.75
2022-07-29T04:05:42.761Z,11.68
2022-07-29T04:07:15.325Z,10.80
2022-07-29T04:08:48.681Z,10.60
2022-07-29T04:10:30.335Z,10.10
2022-07-29T04:12:04.643Z,11.73
2022-07-29T04:13:36.453Z,10.43
2022-07-29T04:15:09.526Z,10.32
2022-07-29T04:16:41.195Z,9.05
2022-07-29T04:18:12.933Z,9.82
2022-07-29T04:19:44.687Z,9.75
2022-07-29T04:21:16.404Z,7.68
2022-07-29T04:22:48.097Z,10.00
2022-07-29T04:24:21.472Z,11.15
2022-07-29T04:25:53.184Z,10.50
2022-07-29T04:27:25.072Z,9.23
2022-07-29T04:28:56.858Z,10.55
2022-07-29T04:30:29.085Z,13.75
2022-07-29T04:32:00.782Z,10.98
2022-07-29T04:33:32.521Z,11.00
2022-07-29T04:35:04.978Z,8.32
2022-07-29T04:36:36.696Z,11.85
2022-07-29T04:38:15.895Z,10.32
2022-07-29T04:39:50.318Z,10.00
2022-07-29T04:41:22.025Z,12.85
2022-07-29T04:42:53.811Z,13.48
2022-07-29T04:44:28.379Z,15.93
2022-07-29T04:46:01.323Z,12.05
2022-07-29T04:47:33.148Z,13.82
2022-07-29T04:49:05.201Z,13.02
2022-07-29T04:50:39.048Z,15.15
2022-07-29T04:52:10.818Z,16.52
2022-07-29T04:53:42.598Z,17.02
2022-07-29T04:55:16.018Z,13.50
2022-07-29T04:56:47.891Z,21.05
2022-07-29T04:58:19.638Z,13.70
2022-07-29T04:59:51.324Z,15.82
2022-07-29T05:01:23.153Z,15.40
2022-07-29T05:02:55.110Z,17.00
2022-07-29T05:04:26.883Z,14.60
2022-07-29T05:05:58.582Z,13.00
2022-07-29T05:07:30.492Z,14.27
2022-07-29T05:09:02.226Z,14.10
2022-07-29T05:10:38.955Z,14.88
2022-07-29T05:12:10.837Z,13.43
2022-07-29T05:13:45.040Z,16.02
2022-07-29T05:15:18.735Z,15.30
2022-07-29T05:16:52.022Z,13.05
2022-07-29T05:18:26.107Z,13.40
2022-07-29T05:19:58.187Z,10.95
2022-07-29T05:21:29.868Z,9.93
2022-07-29T05:23:02.638Z,11.50
2022-07-29T05:24:34.444Z,14.10
2022-07-29T05:26:07.487Z,11.52
2022-07-29T05:27:39.211Z,12.35
2022-07-29T05:29:44.638Z,10.45
2022-07-29T05:31:04.000Z,13.25
2022-07-29T05:32:35.741Z,10.80
2022-07-29T05:34:07.494Z,12.68
2022-07-29T05:35:39.205Z,13.57
2022-07-29T05:37:11.069Z,11.80
2022-07-29T05:38:42.840Z,12.70
2022-07-29T05:40:14.619Z,10.27
2022-07-29T05:41:51.877Z,11.07
2022-07-29T05:43:24.217Z,12.10
2022-07-29T05:44:56.066Z,10.73
2022-07-29T05:46:27.919Z,10.60
2022-07-29T05:47:59.734Z,10.80
2022-07-29T05:49:31.481Z,11.55
2022-07-29T05:51:03.478Z,9.95
2022-07-29T05:52:35.252Z,10.20
2022-07-29T05:54:07.132Z,13.02
2022-07-29T05:55:38.839Z,10.60
2022-07-29T05:57:17.845Z,10.45
2022-07-29T05:58:49.575Z,10.57
2022-07-29T06:00:21.302Z,10.57
2022-07-29T06:01:53.158Z,12.75
2022-07-29T06:03:24.951Z,11.52
2022-07-29T06:04:56.749Z,9.93
2022-07-29T06:06:28.607Z,11.68
2022-07-29T06:08:00.294Z,14.68
2022-07-29T06:09:32.035Z,11.75
2022-07-29T06:11:04.553Z,14.18
2022-07-29T06:12:37.682Z,13.82
2022-07-29T06:14:09.467Z,12.82
2022-07-29T06:15:41.296Z,14.52
2022-07-29T06:17:13.056Z,9.77
2022-07-29T06:18:44.831Z,13.57
2022-07-29T06:20:16.575Z,9.82
2022-07-29T06:21:49.014Z,11.95
2022-07-29T06:23:21.371Z,13.32
2022-07-29T06:24:53.084Z,13.43
2022-07-29T06:26:30.355Z,12.85
2022-07-29T06:28:05.282Z,9.98
2022-07-29T06:29:37.128Z,9.43
2022-07-29T06:31:09.304Z,13.88
2022-07-29T06:32:43.432Z,11.80
2022-07-29T06:34:15.593Z,10.70
2022-07-29T06:35:53.655Z,12.07
2022-07-29T06:37:27.075Z,11.63
2022-07-29T06:39:01.404Z,13.07
2022-07-29T06:40:54.071Z,14.18
2022-07-29T06:42:25.948Z,12.13
2022-07-29T06:43:59.044Z,12.65
2022-07-29T06:45:30.996Z,11.43
2022-07-29T06:47:02.982Z,10.30
2022-07-29T06:48:35.266Z,15.23
2022-07-29T06:50:07.901Z,13.20
2022-07-29T06:51:39.608Z,11.52
2022-07-29T06:53:11.349Z,11.05
2022-07-29T06:54:49.110Z,13.15
2022-07-29T06:56:20.880Z,11.63
2022-07-29T06:57:52.665Z,13.15
2022-07-29T06:59:33.456Z,11.25
2022-07-29T07:01:07.814Z,10.98
2022-07-29T07:02:39.767Z,10.50
2022-07-29T07:04:12.682Z,11.25
2022-07-29T07:05:45.678Z,13.27
2022-07-29T07:07:17.380Z,11.27
2022-07-29T07:08:49.731Z,9.88
2022-07-29T07:10:21.443Z,11.80
2022-07-29T07:11:53.177Z,12.35
2022-07-29T07:13:25.151Z,12.20
2022-07-29T07:14:58.179Z,13.95
2022-07-29T07:16:29.993Z,11.40
2022-07-29T07:18:01.754Z,15.27
2022-07-29T07:19:33.833Z,12.40
2022-07-29T07:21:06.623Z,12.55
2022-07-29T07:22:39.023Z,14.55
2022-07-29T07:24:10.888Z,12.00
2022-07-29T07:25:43.048Z,13.63
2022-07-29T07:27:14.953Z,14.63
2022-07-29T07:28:46.649Z,12.27
2022-07-29T07:30:19.789Z,14.73
2022-07-29T07:31:51.618Z,13.23
2022-07-29T07:33:23.643Z,14.52
2022-07-29T07:34:55.455Z,14.30
2022-07-29T07:36:27.176Z,14.43
2022-07-29T07:37:58.987Z,12.52
2022-07-29T07:39:30.935Z,12.93
2022-07-29T07:41:02.811Z,11.65
2022-07-29T07:42:34.562Z,15.25
2022-07-29T07:44:06.987Z,12.93
2022-07-29T07:45:41.102Z,12.88
2022-07-29T07:47:12.996Z,14.02
2022-07-29T07:48:45.267Z,14.10
2022-07-29T07:50:19.200Z,12.98
2022-07-29T07:51:51.276Z,12.63
2022-07-29T07:53:23.298Z,12.30
2022-07-29T07:54:55.112Z,12.90
2022-07-29T07:56:30.669Z,11.75
2022-07-29T07:58:05.005Z,13.55
2022-07-29T07:59:36.828Z,15.23
2022-07-29T08:01:10.894Z,13.63
2022-07-29T08:02:43.907Z,13.32
2022-07-29T08:04:16.013Z,15.48
2022-07-29T08:05:48.431Z,12.32
2022-07-29T08:07:20.213Z,18.50
2022-07-29T08:08:52.060Z,12.60
2022-07-29T08:10:42.473Z,12.73
2022-07-29T08:12:14.211Z,16.67
2022-07-29T08:13:45.986Z,17.48
2022-07-29T08:15:17.770Z,15.43
2022-07-29T08:16:51.785Z,16.98
2022-07-29T08:18:23.638Z,18.15
2022-07-29T08:19:55.450Z,12.35
2022-07-29T08:21:27.260Z,24.85
2022-07-29T08:22:59.009Z,16.58
2022-07-29T08:24:53.437Z,15.68
2022-07-29T08:26:27.313Z,17.52
2022-07-29T08:27:59.761Z,15.65
2022-07-29T08:29:31.554Z,18.67
2022-07-29T08:31:04.372Z,15.07
2022-07-29T08:32:53.349Z,13.57
2022-07-29T08:34:28.108Z,12.38
2022-07-29T08:36:00.022Z,12.50
2022-07-29T08:37:31.739Z,13.25
2022-07-29T08:39:03.884Z,15.23
2022-07-29T08:40:35.979Z,14.75
2022-07-29T08:42:07.740Z,12.65
2022-07-29T08:43:41.862Z,10.90
2022-07-29T08:45:13.858Z,13.77
2022-07-29T08:46:45.951Z,15.85
2022-07-29T08:48:21.523Z,15.88
2022-07-29T08:49:53.337Z,13.73
2022-07-29T08:51:28.133Z,16.55
2022-07-29T08:53:00.355Z,12.23
2022-07-29T08:54:32.517Z,13.13
2022-07-29T08:56:04.941Z,13.00
2022-07-29T08:57:37.386Z,13.13
2022-07-29T08:59:10.442Z,13.88
2022-07-29T09:00:56.571Z,11.43
2022-07-29T09:02:40.077Z,12.30
2022-07-29T09:04:14.164Z,11.18
2022-07-29T09:05:48.240Z,13.68
2022-07-29T09:07:20.193Z,13.88
2022-07-29T09:08:52.084Z,12.27
2022-07-29T09:10:24.177Z,12.30
2022-07-29T09:11:56.533Z,17.42
2022-07-29T09:13:28.580Z,13.80
2022-07-29T09:15:00.258Z,12.90
2022-07-29T09:16:53.094Z,13.48
2022-07-29T09:18:34.840Z,16.10
2022-07-29T09:20:12.898Z,13.30
2022-07-29T09:22:00.092Z,14.02
2022-07-29T09:23:31.978Z,13.73
2022-07-29T09:25:04.203Z,13.35
2022-07-29T09:26:37.537Z,15.07
2022-07-29T09:28:10.412Z,12.10
2022-07-29T09:29:42.124Z,12.10
2022-07-29T09:31:13.855Z,15.82
2022-07-29T09:33:04.086Z,14.90
2022-07-29T09:34:35.917Z,11.45
2022-07-29T09:36:10.774Z,15.98
2022-07-29T09:37:42.731Z,12.43
2022-07-29T09:39:15.667Z,16.02
2022-07-29T09:40:59.849Z,14.35
2022-07-29T09:42:36.642Z,15.07
2022-07-29T09:44:08.464Z,13.75
2022-07-29T09:45:40.704Z,13.70
2022-07-29T09:47:13.373Z,11.52
2022-07-29T09:48:45.169Z,11.48
2022-07-29T09:50:17.345Z,12.30
2022-07-29T09:52:05.476Z,13.82
2022-07-29T09:53:38.768Z,14.32
2022-07-29T09:55:13.742Z,12.88
2022-07-29T09:58:23.488Z,13.90
2022-07-29T10:00:00.332Z,14.18
2022-07-29T10:01:32.118Z,11.95
2022-07-29T10:03:04.057Z,14.52
2022-07-29T10:04:39.969Z,13.85
2022-07-29T10:06:14.458Z,17.10
2022-07-29T10:07:53.722Z,13.98
2022-07-29T10:11:10.504Z,14.80
2022-07-29T10:12:50.334Z,14.30
2022-07-29T10:14:22.049Z,18.35
2022-07-29T10:15:53.931Z,13.02
2022-07-29T10:17:25.728Z,16.42
2022-07-29T10:18:57.485Z,16.05
2022-07-29T10:20:29.623Z,12.68
2022-07-29T10:22:03.529Z,11.90
2022-07-29T10:23:46.402Z,12.45
2022-07-29T10:25:20.752Z,13.80
2022-07-29T10:26:53.890Z,11.10
2022-07-29T10:28:26.126Z,16.95
2022-07-29T10:29:57.851Z,10.93
2022-07-29T10:31:37.699Z,12.15
2022-07-29T10:33:27.813Z,11.35
2022-07-29T10:35:22.236Z,12.25
2022-07-29T10:37:06.691Z,17.10
2022-07-29T10:38:47.111Z,10.63
2022-07-29T10:40:47.689Z,13.65
2022-07-29T10:44:12.369Z,12.57
2022-07-29T10:45:50.572Z,10.82
2022-07-29T10:47:25.985Z,11.68
2022-07-29T10:49:15.292Z,10.63
2022-07-29T10:50:57.759Z,11.77
2022-07-29T10:52:54.437Z,12.73
2022-07-29T10:54:48.729Z,9.40
2022-07-29T10:56:29.499Z,11.30
2022-07-29T10:58:15.959Z,10.65
2022-07-29T10:59:52.934Z,9.90
2022-07-29T11:01:37.100Z,11.20
2022-07-29T11:03:10.982Z,12.35
2022-07-29T11:05:00.752Z,12.18
2022-07-29T11:08:26.519Z,12.68
2022-07-29T11:10:26.848Z,11.63
2022-07-29T11:12:03.546Z,9.27
2022-07-29T11:13:52.528Z,10.20
2022-07-29T11:15:25.270Z,13.60
2022-07-29T11:17:05.959Z,10.48
2022-07-29T11:19:26.176Z,10.85
2022-07-29T11:20:58.527Z,10.45
2022-07-29T11:22:35.311Z,11.73
2022-07-29T11:24:13.504Z,13.93
2022-07-29T11:26:28.343Z,13.63
2022-07-29T11:28:23.066Z,14.68
2022-07-29T11:29:58.894Z,14.30
2022-07-29T11:31:39.089Z,14.30
2022-07-29T11:33:54.356Z,13.13
2022-07-29T11:37:28.385Z,14.85
2022-07-29T11:39:26.459Z,17.02
2022-07-29T11:41:31.770Z,14.27
2022-07-29T11:43:07.270Z,14.88
2022-07-29T11:44:57.421Z,14.68
2022-07-29T11:46:49.973Z,15.77
2022-07-29T11:48:28.692Z,14.40
2022-07-29T11:50:06.117Z,13.38
2022-07-29T11:51:48.721Z,14.85
2022-07-29T11:53:21.729Z,13.05
2022-07-29T11:55:00.897Z,15.15
2022-07-29T11:56:46.856Z,14.52
2022-07-29T11:58:25.082Z,14.30
2022-07-29T12:02:12.141Z,13.07
2022-07-29T12:03:46.123Z,15.82
2022-07-29T12:05:36.140Z,13.45
2022-07-29T12:07:08.798Z,14.50
2022-07-29T12:08:43.334Z,13.10
2022-07-29T12:10:20.151Z,17.13
2022-07-29T12:12:05.544Z,14.32
2022-07-29T12:13:40.676Z,14.10
2022-07-29T12:15:15.863Z,12.52
2022-07-29T12:16:47.639Z,13.68
2022-07-29T12:18:24.222Z,14.27
2022-07-29T12:19:57.180Z,12.63
2022-07-29T12:21:29.475Z,13.95
2022-07-29T12:23:06.357Z,15.02
2022-07-29T12:24:45.064Z,13.98
2022-07-29T12:26:25.612Z,14.53
2022-07-29T12:28:03.139Z,12.43
2022-07-29T12:29:35.966Z,14.80
2022-07-29T12:31:14.087Z,14.13
2022-07-29T12:32:48.372Z,13.27
2022-07-29T12:34:20.643Z,12.77
2022-07-29T12:36:17.122Z,13.90
2022-07-29T12:37:53.010Z,15.07
2022-07-29T12:39:28.928Z,16.52
2022-07-29T12:41:01.944Z,17.55
2022-07-29T12:42:36.809Z,16.17
2022-07-29T12:44:10.363Z,17.67
2022-07-29T12:45:43.690Z,16.20
2022-07-29T12:47:15.595Z,16.77
2022-07-29T12:48:55.645Z,15.85
2022-07-29T12:50:27.535Z,16.20
2022-07-29T12:51:59.714Z,15.77
2022-07-29T12:53:31.808Z,13.82
2022-07-29T12:55:05.129Z,17.92
2022-07-29T12:56:45.553Z,13.60
2022-07-29T12:58:30.765Z,17.40
2022-07-29T13:00:09.596Z,13.00
2022-07-29T13:01:41.515Z,13.32
2022-07-29T13:03:13.271Z,15.23
2022-07-29T13:04:56.777Z,13.18
2022-07-29T13:06:33.965Z,11.45
2022-07-29T13:08:21.891Z,11.50
2022-07-29T13:09:54.353Z,10.80
2022-07-29T13:11:30.685Z,14.35
2022-07-29T13:13:08.948Z,11.40
2022-07-29T13:14:42.208Z,13.48
2022-07-29T13:16:15.529Z,12.65
2022-07-29T13:17:48.058Z,11.57
2022-07-29T13:19:19.841Z,12.02
2022-07-29T13:20:51.930Z,10.95
2022-07-29T13:22:25.128Z,11.50
2022-07-29T13:23:56.871Z,13.82
2022-07-29T13:25:31.378Z,10.52
2022-07-29T13:27:05.718Z,10.88
2022-07-29T13:28:37.757Z,12.95
2022-07-29T13:30:11.584Z,12.70
2022-07-29T13:31:45.066Z,10.85
2022-07-29T13:33:16.861Z,11.10
2022-07-29T13:34:48.639Z,11.60
2022-07-29T13:36:20.317Z,10.75
2022-07-29T13:37:52.140Z,10.02
2022-07-29T13:39:23.819Z,12.98
2022-07-29T13:40:55.640Z,11.68
2022-07-29T13:42:27.702Z,12.05
2022-07-29T13:43:59.495Z,12.68
2022-07-29T13:45:31.239Z,8.82
2022-07-29T13:47:04.494Z,10.55
2022-07-29T13:48:36.475Z,12.20
2022-07-29T13:50:11.037Z,10.32
2022-07-29T13:51:42.771Z,10.27
2022-07-29T13:53:17.460Z,10.63
2022-07-29T13:54:50.174Z,10.73
2022-07-29T13:56:21.894Z,9.15
2022-07-29T13:57:53.599Z,12.48
2022-07-29T13:59:25.321Z,9.43
2022-07-29T14:00:57.885Z,10.05
2022-07-29T14:02:31.060Z,15.73
2022-07-29T14:04:03.127Z,11.02
2022-07-29T14:05:34.974Z,12.23
2022-07-29T14:07:07.129Z,11.13
2022-07-29T14:08:39.129Z,9.85
2022-07-29T14:10:11.111Z,10.80
2022-07-29T14:11:42.883Z,11.60
2022-07-29T14:13:25.357Z,12.98
2022-07-29T14:14:58.167Z,10.85
2022-07-29T14:16:30.112Z,10.10
2022-07-29T14:18:03.714Z,10.43
2022-07-29T14:19:39.246Z,12.55
2022-07-29T14:21:11.162Z,9.27
2022-07-29T14:22:45.064Z,9.68
2022-07-29T14:24:21.423Z,12.15
2022-07-29T14:25:54.663Z,10.93
2022-07-29T14:27:37.410Z,8.63
2022-07-29T14:29:10.244Z,9.45
2022-07-29T14:30:42.022Z,8.60
2022-07-29T14:32:15.857Z,11.75
2022-07-29T14:33:49.290Z,8.90
2022-07-29T14:35:21.256Z,9.13
2022-07-29T14:36:56.357Z,8.70
2022-07-29T14:38:28.197Z,8.55
2022-07-29T14:40:03.584Z,10.35
2022-07-29T14:41:35.395Z,9.02
2022-07-29T14:43:07.088Z,7.95
2022-07-29T14:44:38.843Z,10.30
2022-07-29T14:46:10.720Z,8.80
2022-07-29T14:47:42.455Z,9.57
2022-07-29T14:49:15.941Z,10.00
2022-07-29T14:50:47.805Z,9.15
2022-07-29T14:52:19.538Z,7.80
2022-07-29T14:53:51.442Z,8.65
2022-07-29T14:55:23.611Z,6.32
2022-07-29T14:56:58.028Z,8.60
2022-07-29T14:58:30.135Z,8.20
2022-07-29T15:00:02.141Z,7.63
2022-07-29T15:01:33.914Z,11.00
2022-07-29T15:03:06.269Z,7.40
2022-07-29T15:04:39.374Z,7.78
2022-07-29T15:06:11.048Z,9.95
2022-07-29T15:07:42.785Z,8.70
2022-07-29T15:09:14.612Z,11.38
2022-07-29T15:10:46.371Z,7.28
2022-07-29T15:12:18.437Z,6.47
2022-07-29T15:13:50.155Z,12.02
2022-07-29T15:15:22.132Z,7.90
2022-07-29T15:16:53.978Z,10.57
2022-07-29T15:18:25.938Z,8.88
2022-07-29T15:19:58.990Z,9.68
2022-07-29T15:21:30.746Z,7.97
2022-07-29T15:23:02.513Z,10.25
2022-07-29T15:24:34.307Z,10.05
2022-07-29T15:26:06.015Z,8.25
2022-07-29T15:27:37.785Z,8.43
2022-07-29T15:29:09.649Z,7.88
2022-07-29T15:30:44.093Z,9.35
2022-07-29T15:32:15.970Z,8.70
2022-07-29T15:33:47.930Z,8.05
2022-07-29T15:35:21.102Z,8.52
2022-07-29T15:36:53.688Z,7.88
2022-07-29T15:38:28.597Z,7.78
2022-07-29T15:40:01.204Z,9.57
2022-07-29T15:41:34.636Z,10.23
2022-07-29T15:43:06.749Z,8.75
2022-07-29T15:44:38.695Z,10.52
2022-07-29T15:46:32.319Z,8.30
2022-07-29T15:48:05.791Z,9.00
2022-07-29T15:49:48.405Z,7.38
2022-07-29T15:51:22.466Z,8.52
2022-07-29T15:52:54.160Z,8.50
2022-07-29T15:54:25.958Z,9.85
2022-07-29T15:55:57.678Z,10.18
2022-07-29T15:57:29.507Z,8.93
2022-07-29T15:59:01.258Z,7.72
2022-07-29T16:00:33.809Z,14.57
2022-07-29T16:02:05.854Z,9.75
2022-07-29T16:03:41.960Z,9.15
2022-07-29T16:05:16.080Z,9.73
2022-07-29T16:06:50.184Z,8.18
2022-07-29T16:08:21.924Z,11.52
2022-07-29T16:09:53.698Z,11.13
2022-07-29T16:11:25.527Z,12.13
2022-07-29T16:12:57.271Z,9.82
2022-07-29T16:14:29.087Z,7.50
2022-07-29T16:16:00.814Z,10.77
2022-07-29T16:17:34.913Z,9.07
2022-07-29T16:19:07.337Z,8.18
2022-07-29T16:20:39.053Z,8.77
2022-07-29T16:22:12.594Z,8.70
2022-07-29T16:23:44.407Z,8.00
2022-07-29T16:25:16.164Z,9.30
2022-07-29T16:26:47.927Z,8.57
2022-07-29T16:28:19.768Z,9.20
2022-07-29T16:29:51.540Z,8.57
2022-07-29T16:31:23.863Z,8.80
2022-07-29T16:32:55.601Z,8.18
2022-07-29T16:34:27.364Z,10.65
2022-07-29T16:35:59.307Z,9.80
2022-07-29T16:37:35.453Z,12.77
2022-07-29T16:39:07.219Z,10.07
2022-07-29T16:40:38.915Z,9.40
2022-07-29T16:42:21.292Z,7.95
2022-07-29T16:44:03.223Z,9.32
2022-07-29T16:45:37.845Z,9.90
2022-07-29T16:47:18.116Z,10.43
2022-07-29T16:48:50.908Z,9.50
2022-07-29T16:50:22.814Z,8.15
2022-07-29T16:51:54.823Z,10.02
2022-07-29T16:53:30.121Z,9.48
2022-07-29T16:55:02.008Z,10.52
2022-07-29T16:56:33.743Z,8.93
2022-07-29T16:58:05.479Z,11.73
2022-07-29T16:59:43.625Z,10.55
2022-07-29T17:01:17.040Z,10.50
2022-07-29T17:02:48.979Z,9.52
2022-07-29T17:04:20.988Z,9.82
2022-07-29T17:05:54.828Z,8.50
2022-07-29T17:07:26.753Z,10.40
2022-07-29T17:08:59.795Z,8.10
2022-07-29T17:10:31.807Z,8.23
2022-07-29T17:12:04.044Z,8.82
2022-07-29T17:13:35.827Z,10.55
2022-07-29T17:15:09.613Z,10.15
2022-07-29T17:16:41.459Z,13.75
2022-07-29T17:18:13.288Z,9.07
2022-07-29T17:19:45.036Z,7.97
2022-07-29T17:21:16.870Z,9.32
2022-07-29T17:22:48.644Z,8.20
2022-07-29T17:24:21.736Z,7.82
2022-07-29T17:25:56.192Z,8.02
2022-07-29T17:27:27.925Z,10.40
2022-07-29T17:28:59.690Z,10.93
2022-07-29T17:30:31.506Z,7.93
2022-07-29T17:32:03.621Z,9.75
2022-07-29T17:33:35.609Z,8.70
2022-07-29T17:35:28.704Z,13.65
2022-07-29T17:37:00.877Z,7.82
2022-07-29T17:38:32.771Z,7.50
2022-07-29T17:40:07.539Z,9.50
2022-07-29T17:41:40.973Z,7.68
2022-07-29T17:43:12.732Z,8.18
2022-07-29T17:44:44.544Z,10.07
2022-07-29T17:46:16.820Z,8.48
2022-07-29T17:47:50.498Z,8.80
2022-07-29T17:49:22.410Z,10.32
2022-07-29T17:50:54.172Z,11.57
2022-07-29T17:52:26.262Z,8.88
2022-07-29T17:53:58.331Z,8.18
2022-07-29T17:55:31.428Z,10.05
2022-07-29T17:57:03.531Z,10.55
2022-07-29T17:58:35.443Z,9.30
2022-07-29T18:00:08.487Z,9.23
2022-07-29T18:01:41.366Z,10.32
2022-07-29T18:03:13.570Z,9.13
2022-07-29T18:04:45.423Z,7.68
2022-07-29T18:06:22.311Z,10.77
2022-07-29T18:07:55.778Z,9.35
2022-07-29T18:09:27.598Z,10.38
2022-07-29T18:11:00.656Z,9.15
2022-07-29T18:12:32.468Z,7.03
2022-07-29T18:14:04.250Z,8.73
2022-07-29T18:15:36.027Z,7.55
2022-07-29T18:17:07.747Z,8.75
2022-07-29T18:18:39.636Z,11.57
2022-07-29T18:20:11.811Z,10.90
2022-07-29T18:21:54.455Z,10.35
2022-07-29T18:23:27.336Z,8.85
2022-07-29T18:24:59.101Z,9.20
2022-07-29T18:26:32.233Z,9.35
2022-07-29T18:28:04.956Z,9.65
2022-07-29T18:29:36.740Z,8.45
2022-07-29T18:31:08.590Z,8.38
2022-07-29T18:32:40.832Z,8.18
2022-07-29T18:34:12.672Z,9.45
2022-07-29T18:35:45.350Z,8.77
2022-07-29T18:37:17.279Z,8.38
2022-07-29T18:39:09.070Z,10.30
2022-07-29T18:40:45.758Z,9.65
2022-07-29T18:42:19.244Z,10.32
2022-07-29T18:43:50.966Z,8.55
2022-07-29T18:45:23.194Z,10.40
2022-07-29T18:47:01.241Z,9.10
2022-07-29T18:48:34.346Z,9.75
2022-07-29T18:50:07.532Z,11.00
2022-07-29T18:51:39.522Z,10.25
2022-07-29T18:53:11.321Z,9.13
2022-07-29T18:54:43.068Z,9.65
2022-07-29T18:56:14.832Z,11.43
2022-07-29T18:57:55.181Z,9.88
2022-07-29T18:59:30.302Z,10.68
2022-07-29T19:01:02.271Z,10.32
2022-07-29T19:02:34.139Z,9.70
2022-07-29T19:04:06.063Z,9.93
2022-07-29T19:05:37.876Z,11.57
2022-07-29T19:07:09.832Z,10.45
2022-07-29T19:08:41.940Z,9.65
2022-07-29T19:10:13.806Z,9.15
2022-07-29T19:11:45.530Z,11.38
2022-07-29T19:13:18.731Z,11.57
2022-07-29T19:14:50.460Z,11.57
2022-07-29T19:16:22.223Z,12.45
2022-07-29T19:17:57.691Z,10.98
2022-07-29T19:19:32.375Z,13.52
2022-07-29T19:21:04.108Z,11.60
2022-07-29T19:22:36.966Z,14.25
2022-07-29T19:24:13.628Z,13.00
2022-07-29T19:25:53.678Z,10.80
2022-07-29T19:27:26.004Z,10.15
2022-07-29T19:28:59.086Z,8.63
2022-07-29T19:30:31.023Z,9.27
2022-07-29T19:32:02.839Z,9.73
2022-07-29T19:33:34.672Z,10.63
2022-07-29T19:35:25.170Z,10.60
2022-07-29T19:36:59.975Z,9.30
2022-07-29T19:38:32.121Z,10.27
2022-07-29T19:40:04.720Z,10.30
2022-07-29T19:41:36.468Z,10.10
2022-07-29T19:43:49.488Z,11.98
2022-07-29T19:45:03.079Z,10.07
2022-07-29T19:46:34.935Z,8.52
2022-07-29T19:48:07.725Z,11.07
2022-07-29T19:49:40.476Z,10.02
2022-07-29T19:51:12.307Z,11.07
2022-07-29T19:52:45.011Z,9.38
2022-07-29T19:54:18.201Z,8.70
2022-07-29T19:55:50.313Z,10.38
2022-07-29T19:57:22.112Z,9.18
2022-07-29T19:58:56.342Z,11.10
2022-07-29T20:00:31.237Z,12.13
2022-07-29T20:02:03.103Z,12.80
2022-07-29T20:03:34.977Z,11.73
2022-07-29T20:05:07.941Z,10.88
2022-07-29T20:06:39.867Z,11.65
2022-07-29T20:08:11.795Z,12.68
2022-07-29T20:09:44.377Z,12.90
2022-07-29T20:11:16.799Z,10.20
2022-07-29T20:12:48.773Z,11.90
2022-07-29T20:14:24.411Z,10.65
2022-07-29T20:15:57.922Z,11.20
2022-07-29T20:17:29.791Z,11.90
2022-07-29T20:19:01.822Z,12.15
2022-07-29T20:20:33.711Z,10.65
2022-07-29T20:22:05.611Z,12.45
2022-07-29T20:23:37.558Z,11.27
2022-07-29T20:25:09.934Z,14.25
2022-07-29T20:26:49.238Z,13.57
2022-07-29T20:29:53.162Z,13.25
2022-07-29T20:31:27.713Z,13.98
2022-07-29T20:33:00.544Z,11.23
2022-07-29T20:34:32.455Z,11.32
2022-07-29T20:36:07.680Z,13.50
2022-07-29T20:37:56.014Z,11.23
2022-07-29T20:39:31.072Z,14.13
2022-07-29T20:41:02.851Z,15.45
2022-07-29T20:42:36.787Z,14.02
2022-07-29T20:44:08.725Z,12.68
2022-07-29T20:45:40.524Z,12.80
2022-07-29T20:47:15.980Z,14.35